createdAt,value
2018-12-23T00:01:25.395Z,2.40
2018-12-23T00:03:52.934Z,3.07
2018-12-23T00:06:20.729Z,2.93
2018-12-23T00:08:48.868Z,2.10
2018-12-23T00:11:16.876Z,2.50
2018-12-23T00:13:44.424Z,2.40
2018-12-23T00:16:12.362Z,2.20
2018-12-23T00:18:39.873Z,2.27
2018-12-23T00:21:07.584Z,2.50
2018-12-23T00:23:35.550Z,2.60
2018-12-23T00:26:03.336Z,2.20
2018-12-23T00:28:30.870Z,3.10
2018-12-23T00:30:58.943Z,2.37
2018-12-23T00:33:26.606Z,2.40
2018-12-23T00:35:54.308Z,2.30
2018-12-23T00:38:22.132Z,2.00
2018-12-23T00:40:49.830Z,2.30
2018-12-23T00:43:17.366Z,2.87
2018-12-23T00:45:45.362Z,2.00
2018-12-23T00:48:12.894Z,3.33
2018-12-23T00:50:40.754Z,2.47
2018-12-23T00:53:08.319Z,1.97
2018-12-23T00:55:35.973Z,2.20
2018-12-23T00:58:03.635Z,1.80
2018-12-23T01:00:31.329Z,1.80
2018-12-23T01:02:58.866Z,2.47
2018-12-23T01:05:28.875Z,1.97
2018-12-23T01:07:56.266Z,2.33
2018-12-23T01:10:24.203Z,2.17
2018-12-23T01:12:51.869Z,2.60
2018-12-23T01:15:19.468Z,1.70
2018-12-23T01:17:47.282Z,1.30
2018-12-23T01:20:14.916Z,2.47
2018-12-23T01:22:42.747Z,1.73
2018-12-23T01:25:10.714Z,2.60
2018-12-23T01:27:38.240Z,2.17
2018-12-23T01:30:05.946Z,2.77
2018-12-23T01:32:33.622Z,2.53
2018-12-23T01:35:01.252Z,2.57
2018-12-23T01:37:28.816Z,2.30
2018-12-23T01:39:56.794Z,1.83
2018-12-23T01:42:24.340Z,2.47
2018-12-23T01:44:52.322Z,2.60
2018-12-23T01:47:19.842Z,2.00
2018-12-23T01:49:47.472Z,2.50
2018-12-23T01:52:15.012Z,2.87
2018-12-23T01:54:42.752Z,2.20
2018-12-23T01:57:10.281Z,2.23
2018-12-23T01:59:37.970Z,2.83
2018-12-23T02:02:05.503Z,2.43
2018-12-23T02:04:33.147Z,3.47
2018-12-23T02:07:00.667Z,2.90
2018-12-23T02:09:28.223Z,2.63
2018-12-23T02:11:55.787Z,3.57
2018-12-23T02:14:23.334Z,2.77
2018-12-23T02:16:51.326Z,3.50
2018-12-23T02:19:18.856Z,3.47
2018-12-23T02:21:46.843Z,3.57
2018-12-23T02:24:14.390Z,4.47
2018-12-23T02:26:42.204Z,3.30
2018-12-23T02:29:09.820Z,3.90
2018-12-23T02:31:37.445Z,3.50
2018-12-23T02:34:05.128Z,3.53
2018-12-23T02:36:32.781Z,2.67
2018-12-23T02:39:01.057Z,3.47
2018-12-23T02:41:31.848Z,3.87
2018-12-23T02:43:58.247Z,3.50
2018-12-23T02:46:26.318Z,3.43
2018-12-23T02:48:53.860Z,3.73
2018-12-23T02:51:21.457Z,3.43
2018-12-23T02:53:48.997Z,2.63
2018-12-23T02:56:16.598Z,2.70
2018-12-23T02:58:45.167Z,3.33
2018-12-23T03:01:12.909Z,2.97
2018-12-23T03:03:40.428Z,3.40
2018-12-23T03:06:08.257Z,3.40
2018-12-23T03:08:36.058Z,3.37
2018-12-23T03:11:03.760Z,3.00
2018-12-23T03:13:31.290Z,3.20
2018-12-23T03:15:59.075Z,3.80
2018-12-23T03:18:26.614Z,3.70
2018-12-23T03:20:54.408Z,4.40
2018-12-23T03:23:22.437Z,3.17
2018-12-23T03:25:50.406Z,4.23
2018-12-23T03:28:17.964Z,4.97
2018-12-23T03:30:45.838Z,4.73
2018-12-23T03:33:13.373Z,4.33
2018-12-23T03:35:41.158Z,5.90
2018-12-23T03:38:08.858Z,6.90
2018-12-23T03:40:36.925Z,6.70
2018-12-23T03:43:05.467Z,6.80
2018-12-23T03:45:33.008Z,7.13
2018-12-23T03:48:00.875Z,6.80
2018-12-23T03:50:28.481Z,6.60
2018-12-23T03:52:56.047Z,7.10
2018-12-23T03:55:23.657Z,6.20
2018-12-23T03:57:51.171Z,7.10
2018-12-23T04:00:19.079Z,8.07
2018-12-23T04:02:46.980Z,7.33
2018-12-23T04:05:14.512Z,7.47
2018-12-23T04:07:43.050Z,6.80
2018-12-23T04:10:10.601Z,7.27
2018-12-23T04:12:38.746Z,6.20
2018-12-23T04:15:06.777Z,6.17
2018-12-23T04:17:35.097Z,5.00
2018-12-23T04:20:02.960Z,4.93
2018-12-23T04:22:30.892Z,4.70
2018-12-23T04:24:58.415Z,4.20
2018-12-23T04:27:26.355Z,3.60
2018-12-23T04:29:53.927Z,4.97
2018-12-23T04:32:22.368Z,3.80
2018-12-23T04:34:49.905Z,4.10
2018-12-23T04:37:17.598Z,3.87
2018-12-23T04:39:45.141Z,3.40
2018-12-23T04:42:13.192Z,2.70
2018-12-23T04:44:41.438Z,3.57
2018-12-23T04:47:09.112Z,2.70
2018-12-23T04:49:36.660Z,2.30
2018-12-23T04:52:04.178Z,2.97
2018-12-23T04:54:31.779Z,3.07
2018-12-23T04:56:59.312Z,2.37
2018-12-23T04:59:27.598Z,2.57
2018-12-23T05:01:55.176Z,3.63
2018-12-23T05:04:22.705Z,3.43
2018-12-23T05:06:50.304Z,3.73
2018-12-23T05:09:17.837Z,3.43
2018-12-23T05:11:45.497Z,4.10
2018-12-23T05:14:13.062Z,4.07
2018-12-23T05:16:42.104Z,4.07
2018-12-23T05:19:09.752Z,3.43
2018-12-23T05:21:37.343Z,3.97
2018-12-23T05:24:05.421Z,2.83
2018-12-23T05:26:33.110Z,4.20
2018-12-23T05:29:00.633Z,3.50
2018-12-23T05:31:28.674Z,3.70
2018-12-23T05:33:56.200Z,3.30
2018-12-23T05:36:24.631Z,3.90
2018-12-23T05:38:52.144Z,4.10
2018-12-23T05:41:19.782Z,4.80
2018-12-23T05:43:47.304Z,3.40
2018-12-23T05:46:14.929Z,3.90
2018-12-23T05:48:42.470Z,4.60
2018-12-23T05:51:11.058Z,3.10
2018-12-23T05:53:38.593Z,3.70
2018-12-23T05:56:06.634Z,4.20
2018-12-23T05:58:34.693Z,3.60
2018-12-23T06:01:02.468Z,4.10
2018-12-23T06:03:30.061Z,3.27
2018-12-23T06:05:57.978Z,3.67
2018-12-23T06:08:25.494Z,2.83
2018-12-23T06:10:53.270Z,3.00
2018-12-23T06:13:20.846Z,3.33
2018-12-23T06:15:48.472Z,2.83
2018-12-23T06:18:15.991Z,2.60
2018-12-23T06:20:44.315Z,2.30
2018-12-23T06:23:12.584Z,2.57
2018-12-23T06:25:40.316Z,1.97
2018-12-23T06:28:07.835Z,3.10
2018-12-23T06:30:35.422Z,3.10
2018-12-23T06:33:03.046Z,3.77
2018-12-23T06:35:31.253Z,3.57
2018-12-23T06:37:58.791Z,3.37
2018-12-23T06:40:33.245Z,3.80
2018-12-23T06:43:00.779Z,3.60
2018-12-23T06:45:28.827Z,3.40
2018-12-23T06:47:56.366Z,4.73
2018-12-23T06:50:24.051Z,3.47
2018-12-23T06:52:51.813Z,3.77
2018-12-23T06:55:19.412Z,4.47
2018-12-23T06:57:46.939Z,3.17
2018-12-23T07:00:14.903Z,3.77
2018-12-23T07:02:42.421Z,3.73
2018-12-23T07:05:10.080Z,3.60
2018-12-23T07:07:37.611Z,3.20
2018-12-23T07:10:07.385Z,3.17
2018-12-23T07:12:34.912Z,3.70
2018-12-23T07:15:02.711Z,3.33
2018-12-23T07:17:30.378Z,3.97
2018-12-23T07:19:58.292Z,4.10
2018-12-23T07:22:26.087Z,3.60
2018-12-23T07:24:54.127Z,4.57
2018-12-23T07:27:21.665Z,3.70
2018-12-23T07:29:49.483Z,3.10
2018-12-23T07:32:17.027Z,4.37
2018-12-23T07:34:44.836Z,4.63
2018-12-23T07:37:12.365Z,4.20
2018-12-23T07:39:40.682Z,4.53
2018-12-23T07:42:08.212Z,4.47
2018-12-23T07:44:36.650Z,3.00
2018-12-23T07:47:04.181Z,4.67
2018-12-23T07:49:31.770Z,4.10
2018-12-23T07:51:59.558Z,4.00
2018-12-23T07:54:27.493Z,4.13
2018-12-23T07:56:55.047Z,5.23
2018-12-23T07:59:22.579Z,3.70
2018-12-23T08:01:51.046Z,4.57
2018-12-23T08:04:18.581Z,3.60
2018-12-23T08:06:46.805Z,4.20
2018-12-23T08:09:14.353Z,4.17
2018-12-23T08:11:42.111Z,4.20
2018-12-23T08:14:09.672Z,3.90
2018-12-23T08:16:37.474Z,3.30
2018-12-23T08:19:05.012Z,3.80
2018-12-23T08:21:33.062Z,4.50
2018-12-23T08:24:01.021Z,3.77
2018-12-23T08:26:28.951Z,4.37
2018-12-23T08:28:56.499Z,3.30
2018-12-23T08:31:24.112Z,5.30
2018-12-23T08:33:51.641Z,3.93
2018-12-23T08:36:20.280Z,4.00
2018-12-23T08:38:48.028Z,3.60
2018-12-23T08:41:15.691Z,4.33
2018-12-23T08:43:43.260Z,3.30
2018-12-23T08:46:11.220Z,4.30
2018-12-23T08:48:38.748Z,4.30
2018-12-23T08:51:06.488Z,3.60
2018-12-23T08:53:34.111Z,4.00
2018-12-23T08:56:01.918Z,3.23
2018-12-23T08:58:29.447Z,3.23
2018-12-23T09:00:57.430Z,4.20
2018-12-23T09:03:24.983Z,3.70
2018-12-23T09:05:52.741Z,4.20
2018-12-23T09:08:20.278Z,3.77
2018-12-23T09:10:48.281Z,4.10
2018-12-23T09:13:15.911Z,3.80
2018-12-23T09:15:43.983Z,3.67
2018-12-23T09:18:19.153Z,2.90
2018-12-23T09:20:41.803Z,2.60
2018-12-23T09:23:09.635Z,3.00
2018-12-23T09:25:37.347Z,1.30
2018-12-23T09:28:05.690Z,3.50
2018-12-23T09:30:34.877Z,3.07
2018-12-23T09:33:02.448Z,2.73
2018-12-23T09:35:30.229Z,2.90
2018-12-23T09:38:01.390Z,4.07
2018-12-23T09:40:27.623Z,3.30
2018-12-23T09:42:55.432Z,3.50
2018-12-23T09:45:23.167Z,3.20
2018-12-23T09:47:50.737Z,2.50
2018-12-23T09:50:20.297Z,3.27
2018-12-23T09:52:47.841Z,2.80
2018-12-23T09:55:15.615Z,4.33
2018-12-23T09:57:43.854Z,5.20
2018-12-23T10:00:11.431Z,4.83
2018-12-23T10:02:39.209Z,3.53
2018-12-23T10:05:06.994Z,7.97
2018-12-23T10:07:35.153Z,4.00
2018-12-23T10:10:02.777Z,3.63
2018-12-23T10:12:30.822Z,2.20
2018-12-23T10:14:58.358Z,2.97
2018-12-23T10:17:26.018Z,2.27
2018-12-23T10:19:53.714Z,2.53
2018-12-23T10:22:21.326Z,2.70
2018-12-23T10:24:49.405Z,2.17
2018-12-23T10:27:17.920Z,3.17
2018-12-23T10:29:45.457Z,2.80
2018-12-23T10:32:13.416Z,3.30
2018-12-23T10:34:41.035Z,2.73
2018-12-23T10:37:09.108Z,2.63
2018-12-23T10:39:36.633Z,3.20
2018-12-23T10:42:04.509Z,3.03
2018-12-23T10:44:32.518Z,2.37
2018-12-23T10:47:00.234Z,2.57
2018-12-23T10:49:28.529Z,3.20
2018-12-23T10:51:56.558Z,3.67
2018-12-23T10:54:24.141Z,2.57
2018-12-23T10:56:51.842Z,3.30
2018-12-23T10:59:19.374Z,2.80
2018-12-23T11:01:46.966Z,2.80
2018-12-23T11:04:14.492Z,3.40
2018-12-23T11:06:42.306Z,2.53
2018-12-23T11:09:09.906Z,3.10
2018-12-23T11:11:38.363Z,2.83
2018-12-23T11:14:05.890Z,3.30
2018-12-23T11:16:34.927Z,1.93
2018-12-23T11:19:02.464Z,3.23
2018-12-23T11:21:30.423Z,2.73
2018-12-23T11:23:57.993Z,3.57
2018-12-23T11:26:25.658Z,3.30
2018-12-23T11:28:53.644Z,3.63
2018-12-23T11:31:21.559Z,3.10
2018-12-23T11:33:49.092Z,3.63
2018-12-23T11:36:18.730Z,2.83
2018-12-23T11:38:46.277Z,3.40
2018-12-23T11:41:14.317Z,3.63
2018-12-23T11:43:42.331Z,3.10
2018-12-23T11:46:10.228Z,3.63
2018-12-23T11:48:37.858Z,3.43
2018-12-23T11:51:06.783Z,3.80
2018-12-23T11:53:34.536Z,3.00
2018-12-23T11:56:02.323Z,3.47
2018-12-23T11:58:29.908Z,3.43
2018-12-23T12:00:57.442Z,1.47
2018-12-23T12:03:25.292Z,3.07
2018-12-23T12:05:52.823Z,3.30
2018-12-23T12:08:20.569Z,3.00
2018-12-23T12:10:48.112Z,2.73
2018-12-23T12:13:15.758Z,3.37
2018-12-23T12:15:43.355Z,3.10
2018-12-23T12:18:10.984Z,2.50
2018-12-23T12:20:38.530Z,2.03
2018-12-23T12:23:06.918Z,3.53
2018-12-23T12:25:34.473Z,3.60
2018-12-23T12:28:02.351Z,3.10
2018-12-23T12:30:30.399Z,2.57
2018-12-23T12:32:57.946Z,2.90
2018-12-23T12:35:26.093Z,2.77
2018-12-23T12:37:53.718Z,3.07
2018-12-23T12:40:21.279Z,2.73
2018-12-23T12:42:49.306Z,2.97
2018-12-23T12:45:16.834Z,2.43
2018-12-23T12:47:44.652Z,2.80
2018-12-23T12:50:12.180Z,2.20
2018-12-23T12:52:39.854Z,3.27
2018-12-23T12:55:07.446Z,3.17
2018-12-23T12:57:35.065Z,2.80
2018-12-23T13:00:02.608Z,3.53
2018-12-23T13:02:30.547Z,3.73
2018-12-23T13:04:58.067Z,3.67
2018-12-23T13:07:25.695Z,2.77
2018-12-23T13:09:53.360Z,2.27
2018-12-23T13:12:20.975Z,2.13
2018-12-23T13:14:48.515Z,2.70
2018-12-23T13:17:16.157Z,2.00
2018-12-23T13:19:43.809Z,2.33
2018-12-23T13:22:11.373Z,2.00
2018-12-23T13:24:39.772Z,2.50
2018-12-23T13:27:07.367Z,2.50
2018-12-23T13:29:34.935Z,2.20
2018-12-23T13:32:02.570Z,2.33
2018-12-23T13:34:30.197Z,2.27
2018-12-23T13:36:57.740Z,1.87
2018-12-23T13:39:25.354Z,1.70
2018-12-23T13:41:58.765Z,2.17
2018-12-23T13:44:36.455Z,2.50
2018-12-23T13:47:28.427Z,2.40
2018-12-23T13:53:43.539Z,2.10
2018-12-23T13:56:34.705Z,2.40
2018-12-23T13:59:24.551Z,4.60
2018-12-23T14:02:14.584Z,1.70
2018-12-23T14:04:49.137Z,2.23
2018-12-23T14:07:29.872Z,2.33
2018-12-23T14:10:17.154Z,3.50
2018-12-23T14:12:45.807Z,2.50
2018-12-23T14:15:14.736Z,3.00
2018-12-23T14:17:43.395Z,2.40
2018-12-23T14:20:12.372Z,3.17
2018-12-23T14:22:41.155Z,6.30
2018-12-23T14:25:10.705Z,4.60
2018-12-23T14:27:39.452Z,3.10
2018-12-23T14:30:08.851Z,3.30
2018-12-23T14:32:37.802Z,6.27
2018-12-23T14:35:06.468Z,3.40
2018-12-23T14:37:35.120Z,4.20
2018-12-23T14:40:04.453Z,4.43
2018-12-23T14:42:33.110Z,4.83
2018-12-23T14:45:02.251Z,3.93
2018-12-23T14:47:30.914Z,4.70
2018-12-23T14:49:59.656Z,3.53
2018-12-23T14:52:28.399Z,2.60
2018-12-23T14:54:57.218Z,5.40
2018-12-23T14:57:25.991Z,5.00
2018-12-23T14:59:54.753Z,2.40
2018-12-23T15:02:23.417Z,3.37
2018-12-23T15:04:52.515Z,3.30
2018-12-23T15:07:21.196Z,5.50
2018-12-23T15:09:50.016Z,3.63
2018-12-23T15:12:18.693Z,8.73
2018-12-23T15:14:47.433Z,7.23
2018-12-23T15:17:16.097Z,4.60
2018-12-23T15:19:45.078Z,3.40
2018-12-23T15:22:13.755Z,4.23
2018-12-23T15:24:43.054Z,3.60
2018-12-23T15:27:11.779Z,3.60
2018-12-23T15:29:40.630Z,3.60
2018-12-23T15:32:10.513Z,3.17
2018-12-23T15:34:39.448Z,4.27
2018-12-23T15:37:08.301Z,4.00
2018-12-23T15:39:42.615Z,4.40
2018-12-23T15:42:10.545Z,4.33
2018-12-23T15:44:39.332Z,4.87
2018-12-23T15:47:08.181Z,3.53
2018-12-23T15:49:37.039Z,4.17
2018-12-23T15:52:05.695Z,4.10
2018-12-23T15:54:34.665Z,5.07
2018-12-23T15:57:03.521Z,5.07
2018-12-23T15:59:32.486Z,4.30
2018-12-23T16:02:01.157Z,5.17
2018-12-23T16:04:30.111Z,4.90
2018-12-23T16:06:58.793Z,4.77
2018-12-23T16:09:27.654Z,5.03
2018-12-23T16:11:56.576Z,5.03
2018-12-23T16:14:25.273Z,4.13
2018-12-23T16:16:54.367Z,3.90
2018-12-23T16:19:23.257Z,4.13
2018-12-23T16:21:51.937Z,4.07
2018-12-23T16:24:21.513Z,3.60
2018-12-23T16:26:50.192Z,4.03
2018-12-23T16:29:19.034Z,3.80
2018-12-23T16:31:47.907Z,4.87
2018-12-23T16:34:17.333Z,3.93
2018-12-23T16:36:46.079Z,4.70
2018-12-23T16:39:14.993Z,5.30
2018-12-23T16:41:43.715Z,5.00
2018-12-23T16:44:12.475Z,4.80
2018-12-23T16:46:44.095Z,4.43
2018-12-23T16:49:13.221Z,5.87
2018-12-23T16:51:41.904Z,11.77
2018-12-23T16:54:10.750Z,14.87
2018-12-23T16:56:39.441Z,11.40
2018-12-23T16:59:08.892Z,8.70
2018-12-23T17:01:37.547Z,9.37
2018-12-23T17:04:06.369Z,11.80
2018-12-23T17:06:36.587Z,14.50
2018-12-23T17:09:07.286Z,13.10
2018-12-23T17:11:35.955Z,9.63
2018-12-23T17:14:04.775Z,7.93
2018-12-23T17:16:33.527Z,5.87
2018-12-23T17:19:02.347Z,7.13
2018-12-23T17:21:31.019Z,8.70
2018-12-23T17:24:00.041Z,12.23
2018-12-23T17:26:29.413Z,18.70
2018-12-23T17:28:58.199Z,22.00
2018-12-23T17:31:26.944Z,14.20
2018-12-23T17:33:55.643Z,20.00
2018-12-23T17:36:24.395Z,16.93
2018-12-23T17:38:53.069Z,11.07
2018-12-23T17:41:22.277Z,10.63
2018-12-23T17:43:51.117Z,11.40
2018-12-23T17:46:19.907Z,12.93
2018-12-23T17:48:48.784Z,10.00
2018-12-23T17:51:20.472Z,11.23
2018-12-23T17:53:49.408Z,10.50
2018-12-23T17:56:18.119Z,12.87
2018-12-23T17:58:47.239Z,9.40
2018-12-23T18:01:15.912Z,9.87
2018-12-23T18:03:44.790Z,8.77
2018-12-23T18:06:13.621Z,8.43
2018-12-23T18:08:42.634Z,8.07
2018-12-23T18:11:11.371Z,6.83
2018-12-23T18:13:40.213Z,7.23
2018-12-23T18:16:09.337Z,5.63
2018-12-23T18:18:38.020Z,6.03
2018-12-23T18:21:06.943Z,5.83
2018-12-23T18:23:36.476Z,5.70
2018-12-23T18:26:06.100Z,7.60
2018-12-23T18:28:34.785Z,5.40
2018-12-23T18:31:03.527Z,6.20
2018-12-23T18:33:32.204Z,5.83
2018-12-23T18:36:00.973Z,4.27
2018-12-23T18:38:29.748Z,4.73
2018-12-23T18:40:58.497Z,4.37
2018-12-23T18:43:27.728Z,4.13
2018-12-23T18:45:56.471Z,4.80
2018-12-23T18:48:25.252Z,4.40
2018-12-23T18:50:55.211Z,5.33
2018-12-23T18:53:24.040Z,4.10
2018-12-23T18:55:55.592Z,4.03
2018-12-23T18:58:24.771Z,5.27
2018-12-23T19:00:53.672Z,4.30
2018-12-23T19:03:22.532Z,5.13
2018-12-23T19:05:51.839Z,5.00
2018-12-23T19:08:21.483Z,5.00
2018-12-23T19:10:57.657Z,5.70
2018-12-23T19:13:47.472Z,4.33
2018-12-23T19:16:22.131Z,5.60
2018-12-23T19:19:05.921Z,5.73
2018-12-23T19:22:03.739Z,4.80
2018-12-23T19:24:44.525Z,5.70
2018-12-23T19:27:40.154Z,6.30
2018-12-23T19:30:17.874Z,5.50
2018-12-23T19:33:11.182Z,6.63
2018-12-23T19:35:51.858Z,7.57
2018-12-23T19:38:35.309Z,9.37
2018-12-23T19:41:24.907Z,12.70
2018-12-23T19:44:20.706Z,12.90
2018-12-23T19:46:56.186Z,15.00
2018-12-23T19:49:55.058Z,13.83
2018-12-23T19:53:00.367Z,16.30
2018-12-23T19:55:48.796Z,19.30
2018-12-23T19:58:23.455Z,15.37
2018-12-23T20:00:58.351Z,13.00
2018-12-23T20:03:30.628Z,10.17
2018-12-23T20:06:08.175Z,9.87
2018-12-23T20:08:56.529Z,10.20
2018-12-23T20:11:31.450Z,14.63
2018-12-23T20:14:26.956Z,14.60
2018-12-23T20:17:04.620Z,12.33
2018-12-23T20:19:57.247Z,17.30
2018-12-23T20:22:38.003Z,19.70
2018-12-23T20:25:27.016Z,10.10
2018-12-23T20:28:07.774Z,5.27
2018-12-23T20:31:13.067Z,6.10
2018-12-23T20:34:09.225Z,5.40
2018-12-23T20:36:52.261Z,5.33
2018-12-23T20:39:47.762Z,6.23
2018-12-23T20:42:31.366Z,9.20
2018-12-23T20:45:03.335Z,9.17
2018-12-23T20:47:38.124Z,10.30
2018-12-23T20:50:14.241Z,7.90
2018-12-23T20:52:52.001Z,9.10
2018-12-23T20:55:56.861Z,6.80
2018-12-23T20:58:31.611Z,5.30
2018-12-23T21:01:19.762Z,5.37
2018-12-23T21:04:11.477Z,6.00
2018-12-23T21:07:03.139Z,7.33
2018-12-23T21:09:58.387Z,7.30
2018-12-23T21:12:38.841Z,7.53
2018-12-23T21:15:42.945Z,8.00
2018-12-23T21:18:36.042Z,7.53
2018-12-23T21:21:25.113Z,10.03
2018-12-23T21:24:11.962Z,8.73
2018-12-23T21:27:00.873Z,9.83
2018-12-23T21:29:55.576Z,4.90
2018-12-23T21:32:50.358Z,8.27
2018-12-23T21:35:40.355Z,6.00
2018-12-23T21:38:31.817Z,6.13
2018-12-23T21:41:26.831Z,4.93
2018-12-23T21:44:27.603Z,4.70
2018-12-23T21:47:05.719Z,5.33
2018-12-23T21:49:54.201Z,3.50
2018-12-23T21:52:39.716Z,5.20
2018-12-23T21:55:38.276Z,4.43
2018-12-23T21:58:16.369Z,5.70
2018-12-23T22:01:02.947Z,4.43
2018-12-23T22:03:35.086Z,3.20
2018-12-23T22:06:26.350Z,3.77
2018-12-23T22:09:29.957Z,2.80
2018-12-23T22:12:13.857Z,1.87
2018-12-23T22:14:42.628Z,2.03
2018-12-23T22:17:11.325Z,1.67
2018-12-23T22:19:40.537Z,1.53
2018-12-23T22:22:09.214Z,1.73
2018-12-23T22:24:38.459Z,1.67
2018-12-23T22:27:08.377Z,1.67
2018-12-23T22:29:40.789Z,1.97
2018-12-23T22:32:10.531Z,1.40
2018-12-23T22:34:39.488Z,1.63
2018-12-23T22:37:08.153Z,1.30
2018-12-23T22:39:39.398Z,2.00
2018-12-23T22:42:08.080Z,1.97
2018-12-23T22:44:36.962Z,1.90
2018-12-23T22:47:05.659Z,2.03
2018-12-23T22:49:34.635Z,1.90
2018-12-23T22:52:03.312Z,1.90
2018-12-23T22:54:32.114Z,1.60
2018-12-23T22:57:00.777Z,1.63
2018-12-23T22:59:29.516Z,1.40
2018-12-23T23:01:58.491Z,1.90
2018-12-23T23:04:27.238Z,1.50
2018-12-23T23:06:56.112Z,1.43
2018-12-23T23:09:24.810Z,1.40
2018-12-23T23:11:53.615Z,1.53
2018-12-23T23:14:22.380Z,1.50
2018-12-23T23:16:51.150Z,1.03
2018-12-23T23:19:19.929Z,1.00
2018-12-23T23:21:48.913Z,1.10
2018-12-23T23:24:17.720Z,1.10
2018-12-23T23:26:48.138Z,1.23
2018-12-23T23:29:17.060Z,1.00
2018-12-23T23:31:45.880Z,1.17
2018-12-23T23:34:14.636Z,0.97
2018-12-23T23:36:43.479Z,1.40
2018-12-23T23:39:15.060Z,1.30
2018-12-23T23:41:44.294Z,1.57
2018-12-23T23:44:12.980Z,2.60
2018-12-23T23:46:42.273Z,1.30
2018-12-23T23:49:11.792Z,1.23
2018-12-23T23:51:40.560Z,1.30
2018-12-23T23:54:09.231Z,1.60
2018-12-23T23:56:38.465Z,1.33
2018-12-23T23:59:07.303Z,1.70
